Bottle Hollow, Utah
Current Conditions -  °F | °C
As of 10:53 AM on Friday 19 Dec 2014 (Local Time) from KVEL Reporting Station
Overcast Overcast  
Wind Chill: 24°   Ceiling: 2000
Heat Index: 29°   Visibility: 10mi
Dew Point: 22°   Wind: 5mph
Humidity: 75%   Direction: 10°N
Pressure: 30.29"   Gusts: NA
Location:  40.2958°N, 109.84°W
Report Text: KVEL 191753Z AUTO 01004KT 10SM OVC020 M02/M06 A3029 RMK AO2 SLP286 T10171056 11017 21033 50007
Loading
Personal Weather Stations






























Interactive Weather Map New forecast layout! Learn more

10-Day Weather Forecast

Advertisements
Track Severe Weather on mobile